KAC25C OKKK-OBBI
Flight info
| Callsign | KAC25C |
|---|---|
| Flight time | 0h 44m |
| Altitude | 27000 |
| Route | BOXIK B416 IMDOX P975 LONOS L703 KOBOK |
| Aircraft | A20N/M-SDE2E3FGHIRWXY/LB1 |
Departure
| Time | 2026-04-27 18:34 |
|---|---|
| Airport | Kuwait International Airport (OKKK) |
Arrival
| Time | 2026-04-27 19:18 |
|---|---|
| Airport | Bahrain International Airport (OBBI) |
| Time | Latitude | Longitude | Altitude | Speed | Heading |
|---|---|---|---|---|---|
| 2026-04-27 17:59 | 29.23674 | 47.96905 | 149 ft | 0 kts | 154° |
| 2026-04-27 18:15 | 29.23678 | 47.96903 | 149 ft | 2 kts | 154° |
| 2026-04-27 18:15 | 29.23693 | 47.96894 | 149 ft | 2 kts | 155° |
| 2026-04-27 18:15 | 29.23707 | 47.96887 | 149 ft | 2 kts | 154° |
| 2026-04-27 18:16 | 29.23720 | 47.96879 | 148 ft | 1 kts | 163° |
| 2026-04-27 18:16 | 29.23734 | 47.96881 | 148 ft | 2 kts | 209° |
| 2026-04-27 18:16 | 29.23743 | 47.96889 | 149 ft | 0 kts | 240° |
| 2026-04-27 18:16 | 29.23745 | 47.96896 | 149 ft | 1 kts | 246° |
| 2026-04-27 18:17 | 29.23746 | 47.96898 | 149 ft | 0 kts | 245° |
| 2026-04-27 18:19 | 29.23745 | 47.96895 | 149 ft | 1 kts | 245° |
| 2026-04-27 18:19 | 29.23725 | 47.96845 | 148 ft | 11 kts | 245° |
| 2026-04-27 18:19 | 29.23685 | 47.96753 | 146 ft | 14 kts | 246° |
| 2026-04-27 18:19 | 29.23662 | 47.96692 | 145 ft | 0 kts | 248° |
| 2026-04-27 18:20 | 29.23654 | 47.96669 | 144 ft | 6 kts | 248° |
| 2026-04-27 18:20 | 29.23672 | 47.96603 | 144 ft | 13 kts | 329° |
| 2026-04-27 18:20 | 29.23773 | 47.96549 | 144 ft | 17 kts | 335° |
| 2026-04-27 18:20 | 29.23886 | 47.96490 | 144 ft | 18 kts | 335° |
| 2026-04-27 18:21 | 29.24002 | 47.96428 | 143 ft | 18 kts | 334° |
| 2026-04-27 18:21 | 29.24066 | 47.96393 | 142 ft | 9 kts | 334° |
| 2026-04-27 18:21 | 29.24090 | 47.96379 | 142 ft | 0 kts | 328° |
| 2026-04-27 18:21 | 29.24094 | 47.96375 | 142 ft | 1 kts | 327° |
| 2026-04-27 18:22 | 29.24108 | 47.96318 | 141 ft | 16 kts | 256° |
| 2026-04-27 18:22 | 29.24035 | 47.96215 | 140 ft | 14 kts | 231° |
| 2026-04-27 18:22 | 29.23950 | 47.96206 | 141 ft | 13 kts | 162° |
| 2026-04-27 18:22 | 29.23863 | 47.96251 | 141 ft | 14 kts | 154° |
| 2026-04-27 18:23 | 29.23769 | 47.96301 | 142 ft | 16 kts | 155° |
| 2026-04-27 18:23 | 29.23655 | 47.96360 | 144 ft | 19 kts | 155° |
| 2026-04-27 18:23 | 29.23520 | 47.96433 | 144 ft | 23 kts | 155° |
| 2026-04-27 18:23 | 29.23362 | 47.96517 | 147 ft | 25 kts | 155° |
| 2026-04-27 18:24 | 29.23195 | 47.96606 | 148 ft | 22 kts | 155° |
| 2026-04-27 18:24 | 29.23096 | 47.96675 | 148 ft | 14 kts | 109° |
| 2026-04-27 18:24 | 29.23127 | 47.96781 | 148 ft | 14 kts | 64° |
| 2026-04-27 18:24 | 29.23148 | 47.96873 | 149 ft | 11 kts | 130° |
| 2026-04-27 18:25 | 29.23080 | 47.96914 | 151 ft | 10 kts | 156° |
| 2026-04-27 18:25 | 29.23017 | 47.96948 | 153 ft | 9 kts | 155° |
| 2026-04-27 18:25 | 29.22955 | 47.96981 | 153 ft | 10 kts | 155° |
| 2026-04-27 18:25 | 29.22889 | 47.97017 | 154 ft | 10 kts | 155° |
| 2026-04-27 18:26 | 29.22820 | 47.97054 | 155 ft | 11 kts | 154° |
| 2026-04-27 18:26 | 29.22748 | 47.97095 | 156 ft | 11 kts | 154° |
| 2026-04-27 18:26 | 29.22673 | 47.97133 | 157 ft | 11 kts | 156° |
| 2026-04-27 18:26 | 29.22600 | 47.97171 | 158 ft | 11 kts | 156° |
| 2026-04-27 18:27 | 29.22531 | 47.97206 | 160 ft | 10 kts | 155° |
| 2026-04-27 18:27 | 29.22465 | 47.97240 | 162 ft | 10 kts | 155° |
| 2026-04-27 18:27 | 29.22398 | 47.97278 | 162 ft | 11 kts | 153° |
| 2026-04-27 18:27 | 29.22327 | 47.97317 | 163 ft | 11 kts | 155° |
| 2026-04-27 18:28 | 29.22253 | 47.97356 | 164 ft | 12 kts | 155° |
| 2026-04-27 18:28 | 29.22175 | 47.97396 | 165 ft | 12 kts | 155° |
| 2026-04-27 18:28 | 29.22107 | 47.97432 | 165 ft | 10 kts | 155° |
| 2026-04-27 18:28 | 29.22041 | 47.97467 | 166 ft | 10 kts | 154° |
| 2026-04-27 18:29 | 29.21981 | 47.97500 | 167 ft | 7 kts | 160° |
| 2026-04-27 18:29 | 29.21934 | 47.97472 | 166 ft | 9 kts | 248° |
| 2026-04-27 18:29 | 29.21943 | 47.97385 | 164 ft | 12 kts | 290° |
| 2026-04-27 18:29 | 29.21983 | 47.97290 | 164 ft | 14 kts | 303° |
| 2026-04-27 18:30 | 29.22037 | 47.97223 | 163 ft | 3 kts | 330° |
| 2026-04-27 18:30 | 29.22039 | 47.97221 | 163 ft | 0 kts | 331° |
| 2026-04-27 18:33 | 29.22060 | 47.97209 | 162 ft | 23 kts | 336° |
| 2026-04-27 18:33 | 29.22457 | 47.97000 | 157 ft | 99 kts | 335° |
| 2026-04-27 18:33 | 29.23274 | 47.96560 | 232 ft | 149 kts | 336° |
| 2026-04-27 18:33 | 29.24232 | 47.96063 | 765 ft | 155 kts | 335° |
| 2026-04-27 18:34 | 29.25250 | 47.95558 | 1288 ft | 167 kts | 335° |
| 2026-04-27 18:34 | 29.26367 | 47.95029 | 1839 ft | 177 kts | 334° |
| 2026-04-27 18:34 | 29.27511 | 47.94505 | 2395 ft | 182 kts | 334° |
| 2026-04-27 18:34 | 29.28724 | 47.93905 | 2798 ft | 199 kts | 332° |
| 2026-04-27 18:35 | 29.30038 | 47.93222 | 3247 ft | 216 kts | 331° |
| 2026-04-27 18:35 | 29.31451 | 47.92444 | 3640 ft | 237 kts | 329° |
| 2026-04-27 18:35 | 29.32992 | 47.91535 | 4090 ft | 259 kts | 331° |
| 2026-04-27 18:35 | 29.34785 | 47.90933 | 4577 ft | 282 kts | 360° |
| 2026-04-27 18:36 | 29.36698 | 47.91518 | 5160 ft | 294 kts | 35° |
| 2026-04-27 18:36 | 29.38075 | 47.93186 | 5982 ft | 292 kts | 65° |
| 2026-04-27 18:36 | 29.38606 | 47.95382 | 6857 ft | 285 kts | 95° |
| 2026-04-27 18:36 | 29.38174 | 47.97524 | 7649 ft | 280 kts | 122° |
| 2026-04-27 18:37 | 29.37086 | 47.99340 | 8448 ft | 283 kts | 130° |
| 2026-04-27 18:37 | 29.35907 | 48.01173 | 9242 ft | 290 kts | 130° |
| 2026-04-27 18:37 | 29.34718 | 48.03038 | 10027 ft | 296 kts | 129° |
| 2026-04-27 18:37 | 29.33485 | 48.04993 | 10684 ft | 308 kts | 129° |
| 2026-04-27 18:38 | 29.32203 | 48.07033 | 11148 ft | 327 kts | 128° |
| 2026-04-27 18:38 | 29.30855 | 48.09188 | 11580 ft | 345 kts | 128° |
| 2026-04-27 18:38 | 29.29410 | 48.11501 | 11985 ft | 364 kts | 128° |
| 2026-04-27 18:38 | 29.27916 | 48.13896 | 12335 ft | 382 kts | 128° |
| 2026-04-27 18:39 | 29.26337 | 48.16427 | 12655 ft | 400 kts | 128° |
| 2026-04-27 18:39 | 29.24692 | 48.19064 | 12963 ft | 417 kts | 128° |
| 2026-04-27 18:39 | 29.22969 | 48.21829 | 13472 ft | 426 kts | 128° |
| 2026-04-27 18:39 | 29.21250 | 48.24589 | 14144 ft | 429 kts | 128° |
| 2026-04-27 18:40 | 29.19517 | 48.27361 | 14612 ft | 432 kts | 128° |
| 2026-04-27 18:40 | 29.17777 | 48.30146 | 14761 ft | 434 kts | 128° |
| 2026-04-27 18:40 | 29.16013 | 48.32963 | 14816 ft | 434 kts | 128° |
| 2026-04-27 18:40 | 29.14274 | 48.35743 | 14860 ft | 435 kts | 128° |
| 2026-04-27 18:41 | 29.12502 | 48.38576 | 14923 ft | 436 kts | 128° |
| 2026-04-27 18:41 | 29.10723 | 48.41412 | 14981 ft | 439 kts | 128° |
| 2026-04-27 18:41 | 29.08931 | 48.44268 | 15402 ft | 446 kts | 128° |
| 2026-04-27 18:41 | 29.07130 | 48.47138 | 16146 ft | 446 kts | 128° |
| 2026-04-27 18:42 | 29.05323 | 48.50017 | 16779 ft | 449 kts | 128° |
| 2026-04-27 18:42 | 29.04119 | 48.51933 | 17155 ft | 451 kts | 128° |
| 2026-04-27 18:42 | 29.01679 | 48.55814 | 17927 ft | 456 kts | 128° |
| 2026-04-27 18:42 | 28.99817 | 48.58775 | 18454 ft | 460 kts | 129° |
| 2026-04-27 18:43 | 28.97933 | 48.61763 | 18957 ft | 464 kts | 129° |
| 2026-04-27 18:43 | 28.96051 | 48.64751 | 19481 ft | 467 kts | 129° |
| 2026-04-27 18:43 | 28.94156 | 48.67754 | 19979 ft | 471 kts | 129° |
| 2026-04-27 18:43 | 28.92220 | 48.70820 | 20486 ft | 474 kts | 130° |
| 2026-04-27 18:44 | 28.90291 | 48.73872 | 20972 ft | 477 kts | 130° |
| 2026-04-27 18:44 | 28.88364 | 48.76918 | 21442 ft | 480 kts | 130° |
| 2026-04-27 18:44 | 28.86400 | 48.80024 | 21914 ft | 483 kts | 130° |
| 2026-04-27 18:44 | 28.84452 | 48.83104 | 22379 ft | 485 kts | 130° |
| 2026-04-27 18:45 | 28.82464 | 48.86243 | 22835 ft | 487 kts | 130° |
| 2026-04-27 18:45 | 28.80472 | 48.89385 | 23236 ft | 490 kts | 131° |
| 2026-04-27 18:45 | 28.78476 | 48.92532 | 23658 ft | 492 kts | 131° |
| 2026-04-27 18:45 | 28.76473 | 48.95687 | 24212 ft | 491 kts | 131° |
| 2026-04-27 18:46 | 28.74483 | 48.98824 | 24727 ft | 490 kts | 131° |
| 2026-04-27 18:46 | 28.72495 | 49.01953 | 25192 ft | 491 kts | 131° |
| 2026-04-27 18:46 | 28.70498 | 49.05091 | 25578 ft | 493 kts | 132° |
| 2026-04-27 18:46 | 28.68465 | 49.08274 | 25917 ft | 496 kts | 131° |
| 2026-04-27 18:47 | 28.66428 | 49.11467 | 26198 ft | 500 kts | 131° |
| 2026-04-27 18:47 | 28.64395 | 49.14659 | 26545 ft | 502 kts | 131° |
| 2026-04-27 18:47 | 28.62350 | 49.17863 | 26797 ft | 505 kts | 131° |
| 2026-04-27 18:47 | 28.60221 | 49.21050 | 26811 ft | 502 kts | 136° |
| 2026-04-27 18:48 | 28.57785 | 49.23833 | 26809 ft | 494 kts | 145° |
| 2026-04-27 18:48 | 28.55052 | 49.26139 | 26813 ft | 488 kts | 153° |
| 2026-04-27 18:48 | 28.52198 | 49.28183 | 26821 ft | 487 kts | 154° |
| 2026-04-27 18:48 | 28.49353 | 49.30367 | 26815 ft | 493 kts | 150° |
| 2026-04-27 18:49 | 28.46657 | 49.32786 | 26817 ft | 498 kts | 145° |
| 2026-04-27 18:49 | 28.44032 | 49.35345 | 26822 ft | 499 kts | 144° |
| 2026-04-27 18:49 | 28.41426 | 49.37933 | 26814 ft | 500 kts | 144° |
| 2026-04-27 18:49 | 28.38813 | 49.40535 | 26818 ft | 501 kts | 144° |
| 2026-04-27 18:50 | 28.36196 | 49.43140 | 26816 ft | 501 kts | 144° |
| 2026-04-27 18:50 | 28.33568 | 49.45745 | 26817 ft | 502 kts | 144° |
| 2026-04-27 18:50 | 28.30942 | 49.48340 | 26817 ft | 503 kts | 144° |
| 2026-04-27 18:50 | 28.28277 | 49.50970 | 26820 ft | 505 kts | 144° |
| 2026-04-27 18:51 | 28.25643 | 49.53568 | 26824 ft | 504 kts | 144° |
| 2026-04-27 18:51 | 28.23004 | 49.56163 | 26816 ft | 505 kts | 145° |
| 2026-04-27 18:51 | 28.20284 | 49.58652 | 26815 ft | 503 kts | 147° |
| 2026-04-27 18:51 | 28.17485 | 49.61068 | 26818 ft | 504 kts | 148° |
| 2026-04-27 18:52 | 28.14682 | 49.63478 | 26814 ft | 504 kts | 148° |
| 2026-04-27 18:52 | 28.11891 | 49.65879 | 26819 ft | 504 kts | 148° |
| 2026-04-27 18:52 | 28.09127 | 49.68254 | 26818 ft | 505 kts | 148° |
| 2026-04-27 18:53 | 28.03482 | 49.72987 | 26813 ft | 503 kts | 151° |
| 2026-04-27 18:53 | 28.00615 | 49.75223 | 26811 ft | 503 kts | 151° |
| 2026-04-27 18:53 | 27.97712 | 49.77478 | 26807 ft | 504 kts | 151° |
| 2026-04-27 18:53 | 27.94797 | 49.79741 | 26809 ft | 505 kts | 151° |
| 2026-04-27 18:54 | 27.91930 | 49.81967 | 26806 ft | 507 kts | 151° |
| 2026-04-27 18:54 | 27.89004 | 49.84243 | 26808 ft | 507 kts | 151° |
| 2026-04-27 18:54 | 27.86106 | 49.86494 | 26805 ft | 507 kts | 151° |
| 2026-04-27 18:54 | 27.83210 | 49.88740 | 26803 ft | 507 kts | 150° |
| 2026-04-27 18:55 | 27.80312 | 49.90985 | 26803 ft | 507 kts | 151° |
| 2026-04-27 18:55 | 27.77383 | 49.93249 | 26800 ft | 506 kts | 151° |
| 2026-04-27 18:55 | 27.74483 | 49.95487 | 26794 ft | 508 kts | 151° |
| 2026-04-27 18:55 | 27.71578 | 49.97730 | 26791 ft | 508 kts | 151° |
| 2026-04-27 18:56 | 27.68631 | 50.00006 | 26790 ft | 508 kts | 151° |
| 2026-04-27 18:56 | 27.65730 | 50.02249 | 26792 ft | 508 kts | 151° |
| 2026-04-27 18:56 | 27.62807 | 50.04504 | 26789 ft | 508 kts | 151° |
| 2026-04-27 18:56 | 27.59899 | 50.06747 | 26793 ft | 508 kts | 151° |
| 2026-04-27 18:57 | 27.57000 | 50.08981 | 26795 ft | 507 kts | 151° |
| 2026-04-27 18:57 | 27.54062 | 50.11245 | 26801 ft | 507 kts | 151° |
| 2026-04-27 18:57 | 27.51166 | 50.13475 | 26795 ft | 508 kts | 151° |
| 2026-04-27 18:57 | 27.48241 | 50.15728 | 26796 ft | 507 kts | 151° |
| 2026-04-27 18:58 | 27.45333 | 50.17964 | 26800 ft | 508 kts | 151° |
| 2026-04-27 18:58 | 27.43422 | 50.19450 | 26802 ft | 507 kts | 150° |
| 2026-04-27 18:58 | 27.39584 | 50.22547 | 26805 ft | 507 kts | 149° |
| 2026-04-27 18:58 | 27.36720 | 50.24889 | 26807 ft | 508 kts | 149° |
| 2026-04-27 18:59 | 27.33870 | 50.27220 | 26807 ft | 507 kts | 149° |
| 2026-04-27 18:59 | 27.31017 | 50.29541 | 26808 ft | 507 kts | 150° |
| 2026-04-27 18:59 | 27.28169 | 50.31848 | 26807 ft | 507 kts | 150° |
| 2026-04-27 18:59 | 27.25295 | 50.34170 | 26806 ft | 507 kts | 150° |
| 2026-04-27 19:00 | 27.22438 | 50.36474 | 26526 ft | 509 kts | 149° |
| 2026-04-27 19:00 | 27.19554 | 50.38799 | 25694 ft | 506 kts | 149° |
| 2026-04-27 19:00 | 27.16713 | 50.41087 | 24718 ft | 505 kts | 149° |
| 2026-04-27 19:00 | 27.13874 | 50.43375 | 23620 ft | 507 kts | 148° |
| 2026-04-27 19:01 | 27.11025 | 50.45669 | 22541 ft | 506 kts | 148° |
| 2026-04-27 19:01 | 27.08201 | 50.47953 | 21775 ft | 490 kts | 148° |
| 2026-04-27 19:01 | 27.05461 | 50.50167 | 21032 ft | 482 kts | 148° |
| 2026-04-27 19:01 | 27.02778 | 50.52327 | 20307 ft | 476 kts | 147° |
| 2026-04-27 19:02 | 27.00065 | 50.54378 | 19594 ft | 467 kts | 154° |
| 2026-04-27 19:02 | 26.97107 | 50.55824 | 18907 ft | 455 kts | 166° |
| 2026-04-27 19:02 | 26.94063 | 50.56554 | 18223 ft | 444 kts | 176° |
| 2026-04-27 19:02 | 26.91015 | 50.56760 | 17568 ft | 436 kts | 180° |
| 2026-04-27 19:03 | 26.87996 | 50.56880 | 16910 ft | 430 kts | 181° |
| 2026-04-27 19:03 | 26.85038 | 50.56990 | 16243 ft | 426 kts | 181° |
| 2026-04-27 19:03 | 26.82092 | 50.57106 | 15569 ft | 422 kts | 181° |
| 2026-04-27 19:03 | 26.80165 | 50.57188 | 15117 ft | 419 kts | 181° |
| 2026-04-27 19:04 | 26.76268 | 50.57358 | 14178 ft | 415 kts | 181° |
| 2026-04-27 19:04 | 26.73413 | 50.57486 | 13497 ft | 411 kts | 181° |
| 2026-04-27 19:04 | 26.70584 | 50.57614 | 12882 ft | 404 kts | 181° |
| 2026-04-27 19:04 | 26.67875 | 50.57740 | 12494 ft | 375 kts | 181° |
| 2026-04-27 19:05 | 26.65356 | 50.57858 | 12146 ft | 345 kts | 181° |
| 2026-04-27 19:05 | 26.63046 | 50.57967 | 11850 ft | 324 kts | 181° |
| 2026-04-27 19:05 | 26.60826 | 50.58066 | 11568 ft | 309 kts | 181° |
| 2026-04-27 19:05 | 26.58731 | 50.58161 | 11323 ft | 296 kts | 181° |
| 2026-04-27 19:06 | 26.56705 | 50.58251 | 11081 ft | 288 kts | 181° |
| 2026-04-27 19:06 | 26.54720 | 50.58340 | 10859 ft | 280 kts | 181° |
| 2026-04-27 19:06 | 26.52800 | 50.58519 | 10652 ft | 278 kts | 171° |
| 2026-04-27 19:06 | 26.50998 | 50.59338 | 10475 ft | 281 kts | 150° |
| 2026-04-27 19:07 | 26.49534 | 50.60780 | 10306 ft | 285 kts | 131° |
| 2026-04-27 19:07 | 26.48560 | 50.62698 | 10147 ft | 287 kts | 111° |
| 2026-04-27 19:07 | 26.48190 | 50.64887 | 10010 ft | 289 kts | 94° |
| 2026-04-27 19:07 | 26.48046 | 50.67130 | 9740 ft | 290 kts | 101° |
| 2026-04-27 19:08 | 26.47469 | 50.69263 | 9364 ft | 287 kts | 119° |
| 2026-04-27 19:08 | 26.46502 | 50.71174 | 9026 ft | 285 kts | 124° |
| 2026-04-27 19:08 | 26.45379 | 50.72995 | 8654 ft | 283 kts | 139° |
| 2026-04-27 19:08 | 26.43733 | 50.74094 | 8285 ft | 273 kts | 168° |
| 2026-04-27 19:09 | 26.41872 | 50.74209 | 7947 ft | 266 kts | 194° |
| 2026-04-27 19:09 | 26.40200 | 50.73449 | 7592 ft | 261 kts | 217° |
| 2026-04-27 19:09 | 26.38937 | 50.72010 | 7225 ft | 259 kts | 240° |
| 2026-04-27 19:09 | 26.38332 | 50.70150 | 6909 ft | 259 kts | 264° |
| 2026-04-27 19:10 | 26.38508 | 50.68098 | 6901 ft | 271 kts | 287° |
| 2026-04-27 19:10 | 26.39382 | 50.66231 | 6918 ft | 275 kts | 300° |
| 2026-04-27 19:10 | 26.40421 | 50.64433 | 6654 ft | 277 kts | 301° |
| 2026-04-27 19:10 | 26.41126 | 50.63229 | 6431 ft | 276 kts | 301° |
| 2026-04-27 19:11 | 26.42513 | 50.60850 | 5957 ft | 274 kts | 301° |
| 2026-04-27 19:11 | 26.43541 | 50.59071 | 5697 ft | 268 kts | 301° |
| 2026-04-27 19:11 | 26.44524 | 50.57363 | 5603 ft | 252 kts | 301° |
| 2026-04-27 19:11 | 26.45447 | 50.55756 | 5347 ft | 241 kts | 301° |
| 2026-04-27 19:12 | 26.46289 | 50.54189 | 5066 ft | 235 kts | 290° |
| 2026-04-27 19:12 | 26.46436 | 50.52432 | 4748 ft | 229 kts | 251° |
| 2026-04-27 19:12 | 26.45636 | 50.50952 | 4470 ft | 224 kts | 223° |
| 2026-04-27 19:12 | 26.44311 | 50.50048 | 4175 ft | 221 kts | 196° |
| 2026-04-27 19:13 | 26.42806 | 50.49852 | 3886 ft | 219 kts | 179° |
| 2026-04-27 19:13 | 26.41290 | 50.49883 | 3593 ft | 218 kts | 178° |
| 2026-04-27 19:13 | 26.39769 | 50.49909 | 3304 ft | 217 kts | 178° |
| 2026-04-27 19:13 | 26.38282 | 50.49919 | 3007 ft | 210 kts | 178° |
| 2026-04-27 19:14 | 26.36860 | 50.49967 | 2710 ft | 201 kts | 167° |
| 2026-04-27 19:14 | 26.35535 | 50.50424 | 2427 ft | 194 kts | 156° |
| 2026-04-27 19:14 | 26.34363 | 50.51129 | 2181 ft | 193 kts | 136° |
| 2026-04-27 19:14 | 26.33501 | 50.52208 | 2012 ft | 179 kts | 124° |
| 2026-04-27 19:15 | 26.32840 | 50.53336 | 1742 ft | 167 kts | 119° |
| 2026-04-27 19:15 | 26.32270 | 50.54413 | 1524 ft | 156 kts | 119° |
| 2026-04-27 19:15 | 26.31714 | 50.55382 | 1384 ft | 143 kts | 121° |
| 2026-04-27 19:15 | 26.31170 | 50.56303 | 1166 ft | 141 kts | 121° |
| 2026-04-27 19:16 | 26.30653 | 50.57220 | 922 ft | 139 kts | 120° |
| 2026-04-27 19:16 | 26.30313 | 50.57819 | 846 ft | 138 kts | 121° |
| 2026-04-27 19:16 | 26.29605 | 50.59013 | 639 ft | 139 kts | 122° |
| 2026-04-27 19:16 | 26.29084 | 50.59906 | 471 ft | 138 kts | 121° |
| 2026-04-27 19:17 | 26.28561 | 50.60818 | 304 ft | 138 kts | 122° |
| 2026-04-27 19:17 | 26.28043 | 50.61708 | 100 ft | 137 kts | 122° |
| 2026-04-27 19:17 | 26.27532 | 50.62593 | 13 ft | 126 kts | 122° |
| 2026-04-27 19:17 | 26.27220 | 50.63137 | 12 ft | 53 kts | 121° |
| 2026-04-27 19:18 | 26.27050 | 50.63428 | 12 ft | 26 kts | 123° |
| 2026-04-27 19:18 | 26.26970 | 50.63493 | 12 ft | 12 kts | 199° |
| 2026-04-27 19:18 | 26.26894 | 50.63434 | 12 ft | 14 kts | 216° |
| 2026-04-27 19:18 | 26.26806 | 50.63372 | 12 ft | 14 kts | 210° |
| 2026-04-27 19:19 | 26.26728 | 50.63413 | 12 ft | 15 kts | 123° |
| 2026-04-27 19:19 | 26.26677 | 50.63501 | 12 ft | 3 kts | 122° |
| 2026-04-27 19:19 | 26.26657 | 50.63529 | 12 ft | 5 kts | 154° |
| 2026-04-27 19:19 | 26.26611 | 50.63512 | 12 ft | 7 kts | 212° |
| 2026-04-27 19:20 | 26.26586 | 50.63495 | 12 ft | 0 kts | 212° |